createdAt,value
2022-12-20T00:00:43.463Z,80.88
2022-12-20T00:02:15.652Z,80.81
2022-12-20T00:03:50.444Z,80.83
2022-12-20T00:05:22.380Z,80.77
2022-12-20T00:06:54.521Z,80.69
2022-12-20T00:08:26.549Z,80.46
2022-12-20T00:09:58.569Z,80.34
2022-12-20T00:11:30.743Z,80.18
2022-12-20T00:13:02.911Z,80.38
2022-12-20T00:14:35.142Z,80.38
2022-12-20T00:16:11.031Z,80.52
2022-12-20T00:17:43.154Z,80.82
2022-12-20T00:19:15.198Z,80.93
2022-12-20T00:20:47.156Z,80.82
2022-12-20T00:22:19.116Z,80.57
2022-12-20T00:23:52.555Z,80.17
2022-12-20T00:25:24.702Z,79.84
2022-12-20T00:26:56.648Z,79.78
2022-12-20T00:28:28.761Z,79.92
2022-12-20T00:30:00.790Z,79.95
2022-12-20T00:31:33.529Z,80.07
2022-12-20T00:33:05.563Z,79.78
2022-12-20T00:34:37.833Z,79.85
2022-12-20T00:36:09.971Z,79.68
2022-12-20T00:37:42.054Z,79.78
2022-12-20T00:39:14.117Z,79.87
2022-12-20T00:40:46.121Z,80.05
2022-12-20T00:42:18.241Z,79.79
2022-12-20T00:43:50.448Z,79.68
2022-12-20T00:45:22.364Z,79.86
2022-12-20T00:46:54.569Z,80.05
2022-12-20T00:48:27.401Z,80.22
2022-12-20T00:49:59.490Z,80.10
2022-12-20T00:51:32.995Z,80.31
2022-12-20T00:53:04.920Z,79.98
2022-12-20T00:54:37.030Z,80.00
2022-12-20T00:56:09.919Z,80.01
2022-12-20T00:57:41.962Z,80.11
2022-12-20T00:59:13.984Z,80.31
2022-12-20T01:00:49.161Z,80.37
2022-12-20T01:03:58.180Z,80.17
2022-12-20T01:05:31.383Z,80.20
2022-12-20T01:07:03.672Z,80.24
2022-12-20T01:08:35.659Z,80.53
2022-12-20T01:10:08.286Z,80.54
2022-12-20T01:11:40.442Z,80.58
2022-12-20T01:13:12.487Z,80.66
2022-12-20T01:14:44.479Z,80.92
2022-12-20T01:16:23.410Z,81.17
2022-12-20T01:17:55.814Z,81.53
2022-12-20T01:19:27.823Z,81.52
2022-12-20T01:21:10.246Z,81.56
2022-12-20T01:22:47.333Z,81.31
2022-12-20T01:24:20.805Z,81.12
2022-12-20T01:25:52.764Z,81.17
2022-12-20T01:27:24.819Z,81.00
2022-12-20T01:28:59.218Z,81.03
2022-12-20T01:30:31.517Z,81.09
2022-12-20T01:32:03.591Z,81.24
2022-12-20T01:33:36.607Z,81.02
2022-12-20T01:35:11.874Z,80.96
2022-12-20T01:36:44.042Z,81.03
2022-12-20T01:38:15.979Z,81.09
2022-12-20T01:39:47.961Z,81.08
2022-12-20T01:41:22.613Z,81.53
2022-12-20T01:42:54.612Z,81.74
2022-12-20T01:44:26.527Z,81.90
2022-12-20T01:45:58.568Z,81.99
2022-12-20T01:49:13.644Z,81.93
2022-12-20T01:50:47.015Z,81.98
2022-12-20T01:52:23.651Z,81.82
2022-12-20T01:54:03.859Z,82.01
2022-12-20T01:55:36.113Z,82.10
2022-12-20T01:57:13.495Z,82.36
2022-12-20T01:58:47.183Z,82.37
2022-12-20T02:00:19.962Z,82.29
2022-12-20T02:01:52.175Z,82.36
2022-12-20T02:03:24.360Z,82.41
2022-12-20T02:04:56.495Z,82.35
2022-12-20T02:06:28.603Z,82.36
2022-12-20T02:08:00.756Z,82.03
2022-12-20T02:09:33.402Z,81.86
2022-12-20T02:11:08.168Z,81.75
2022-12-20T02:12:47.545Z,81.56
2022-12-20T02:15:04.633Z,81.36
2022-12-20T02:17:03.171Z,81.28
2022-12-20T02:18:53.818Z,81.11
2022-12-20T02:21:03.101Z,80.86
2022-12-20T02:23:06.563Z,80.83
2022-12-20T02:25:09.100Z,80.88
2022-12-20T02:27:22.407Z,80.88
2022-12-20T02:29:22.827Z,81.02
2022-12-20T02:30:55.386Z,81.46
2022-12-20T02:32:43.507Z,81.44
2022-12-20T02:34:15.923Z,81.45
2022-12-20T02:35:48.065Z,81.57
2022-12-20T02:37:20.086Z,81.69
2022-12-20T02:38:52.974Z,81.89
2022-12-20T02:40:37.005Z,81.85
2022-12-20T02:42:10.404Z,81.86
2022-12-20T02:44:02.299Z,81.94
2022-12-20T02:45:37.750Z,81.89
2022-12-20T02:47:14.765Z,81.74
2022-12-20T02:48:48.252Z,81.86
2022-12-20T02:50:30.894Z,81.87
2022-12-20T02:52:04.012Z,82.03
2022-12-20T02:53:37.162Z,82.39
2022-12-20T02:55:09.362Z,82.48
2022-12-20T02:56:48.267Z,82.61
2022-12-20T02:58:30.930Z,82.52
2022-12-20T03:00:09.955Z,82.69
2022-12-20T03:01:46.744Z,82.60
2022-12-20T03:03:24.986Z,82.79
2022-12-20T03:04:58.139Z,82.84
2022-12-20T03:06:31.164Z,82.91
2022-12-20T03:08:03.313Z,82.86
2022-12-20T03:09:37.970Z,82.96
2022-12-20T03:11:09.984Z,82.95
2022-12-20T03:12:41.972Z,83.05
2022-12-20T03:14:14.352Z,83.03
2022-12-20T03:15:46.386Z,83.14
2022-12-20T03:17:18.495Z,83.45
2022-12-20T03:18:50.563Z,83.45
2022-12-20T03:20:22.524Z,83.64
2022-12-20T03:21:54.513Z,83.52
2022-12-20T03:23:26.559Z,83.45
2022-12-20T03:24:58.519Z,83.54
2022-12-20T03:26:30.507Z,83.48
2022-12-20T03:28:02.533Z,83.20
2022-12-20T03:29:34.573Z,83.23
2022-12-20T03:31:06.772Z,83.00
2022-12-20T03:32:38.942Z,82.87
2022-12-20T03:34:13.281Z,82.89
2022-12-20T03:35:45.219Z,82.69
2022-12-20T03:37:17.214Z,82.54
2022-12-20T03:38:49.688Z,82.51
2022-12-20T03:40:22.058Z,82.47
2022-12-20T03:41:54.052Z,82.39
2022-12-20T03:43:26.026Z,82.48
2022-12-20T03:44:58.095Z,82.52
2022-12-20T03:46:30.351Z,82.51
2022-12-20T03:48:02.479Z,82.61
2022-12-20T03:49:34.431Z,82.62
2022-12-20T03:51:06.837Z,82.43
2022-12-20T03:52:38.969Z,82.67
2022-12-20T03:54:10.977Z,82.68
2022-12-20T03:55:45.798Z,82.63
2022-12-20T03:57:17.888Z,82.49
2022-12-20T03:58:49.923Z,82.33
2022-12-20T04:00:22.047Z,82.08
2022-12-20T04:01:54.183Z,82.15
2022-12-20T04:03:26.315Z,81.68
2022-12-20T04:04:58.429Z,81.55
2022-12-20T04:06:30.575Z,81.67
2022-12-20T04:08:02.696Z,81.69
2022-12-20T04:09:34.818Z,81.73
2022-12-20T04:11:19.462Z,81.92
2022-12-20T04:12:51.448Z,81.89
2022-12-20T04:14:23.488Z,82.06
2022-12-20T04:16:00.310Z,81.73
2022-12-20T04:17:32.867Z,81.59
2022-12-20T04:19:04.982Z,81.50
2022-12-20T04:20:37.114Z,81.17
2022-12-20T04:22:09.210Z,81.03
2022-12-20T04:23:42.360Z,80.87
2022-12-20T04:25:21.812Z,80.82
2022-12-20T04:26:53.981Z,80.92
2022-12-20T04:28:25.957Z,80.97
2022-12-20T04:29:58.029Z,80.83
2022-12-20T04:31:30.013Z,80.90
2022-12-20T04:33:01.998Z,80.83
2022-12-20T04:34:33.998Z,80.82
2022-12-20T04:36:06.484Z,80.74
2022-12-20T04:37:38.602Z,80.57
2022-12-20T04:39:10.653Z,80.50
2022-12-20T04:40:42.751Z,80.64
2022-12-20T04:42:14.828Z,80.59
2022-12-20T04:43:46.880Z,80.59
2022-12-20T04:45:18.961Z,81.12
2022-12-20T04:46:51.068Z,81.05
2022-12-20T04:50:19.612Z,80.89
2022-12-20T04:51:51.698Z,80.90
2022-12-20T04:53:42.928Z,80.96
2022-12-20T04:55:15.142Z,80.84
2022-12-20T04:56:47.353Z,81.03
2022-12-20T04:58:19.514Z,81.11
2022-12-20T04:59:51.552Z,81.15
2022-12-20T05:01:23.676Z,80.88
2022-12-20T05:02:56.078Z,80.81
2022-12-20T05:04:33.239Z,80.80
2022-12-20T05:06:11.741Z,80.96
2022-12-20T05:07:43.784Z,81.10
2022-12-20T05:09:15.755Z,80.87
2022-12-20T05:10:48.392Z,81.09
2022-12-20T05:12:20.447Z,81.29
2022-12-20T05:13:52.608Z,81.31
2022-12-20T05:15:24.675Z,81.43
2022-12-20T05:16:56.659Z,81.79
2022-12-20T05:18:28.920Z,81.96
2022-12-20T05:20:00.999Z,82.15
2022-12-20T05:21:51.467Z,82.16
2022-12-20T05:23:42.056Z,82.21
2022-12-20T05:25:33.224Z,82.32
2022-12-20T05:27:05.364Z,82.30
2022-12-20T05:28:37.337Z,82.31
2022-12-20T05:30:09.827Z,82.58
2022-12-20T05:31:42.043Z,82.85
2022-12-20T05:33:14.139Z,82.79
2022-12-20T05:34:46.389Z,83.00
2022-12-20T05:36:18.636Z,83.44
2022-12-20T05:37:50.637Z,83.36
2022-12-20T05:39:22.707Z,83.33
2022-12-20T05:40:54.802Z,83.68
2022-12-20T05:42:26.820Z,83.80
2022-12-20T05:43:59.087Z,83.88
2022-12-20T05:45:31.226Z,84.03
2022-12-20T05:47:03.402Z,84.12
2022-12-20T05:48:35.723Z,84.29
2022-12-20T05:50:12.266Z,84.11
2022-12-20T05:51:48.748Z,84.14
2022-12-20T05:53:20.725Z,84.29
2022-12-20T05:54:52.789Z,84.34
2022-12-20T05:56:24.825Z,84.19
2022-12-20T05:57:56.926Z,84.00
2022-12-20T05:59:28.940Z,83.75
2022-12-20T06:01:02.976Z,83.59
2022-12-20T06:02:35.283Z,83.79
2022-12-20T06:04:08.735Z,83.75
2022-12-20T06:05:41.560Z,83.89
2022-12-20T06:07:13.654Z,83.82
2022-12-20T06:08:45.650Z,83.68
2022-12-20T06:10:17.800Z,83.40
2022-12-20T06:11:49.796Z,83.14
2022-12-20T06:13:21.848Z,83.06
2022-12-20T06:14:53.890Z,83.21
2022-12-20T06:16:27.566Z,83.54
2022-12-20T06:17:59.678Z,83.55
2022-12-20T06:19:31.774Z,83.79
2022-12-20T06:21:03.998Z,83.69
2022-12-20T06:22:37.960Z,83.61
2022-12-20T06:24:10.022Z,83.69
2022-12-20T06:25:42.363Z,83.65
2022-12-20T06:27:14.470Z,83.61
2022-12-20T06:30:19.774Z,83.90
2022-12-20T06:31:51.911Z,83.88
2022-12-20T06:33:24.725Z,83.94
2022-12-20T06:34:56.793Z,83.88
2022-12-20T06:36:28.936Z,83.81
2022-12-20T06:38:01.019Z,83.79
2022-12-20T06:39:33.048Z,84.00
2022-12-20T06:41:05.255Z,83.96
2022-12-20T06:42:37.410Z,84.21
2022-12-20T06:44:09.436Z,84.36
2022-12-20T06:45:42.479Z,84.43
2022-12-20T06:47:14.911Z,84.43
2022-12-20T06:48:46.946Z,84.14
2022-12-20T06:50:19.114Z,84.03
2022-12-20T06:51:51.157Z,83.78
2022-12-20T06:53:23.198Z,83.83
2022-12-20T06:54:55.349Z,83.60
2022-12-20T06:56:27.345Z,83.38
2022-12-20T06:58:02.152Z,83.53
2022-12-20T06:59:34.232Z,83.77
2022-12-20T07:01:06.472Z,84.03
2022-12-20T07:02:39.195Z,84.22
2022-12-20T07:04:11.330Z,84.21
2022-12-20T07:05:43.407Z,84.20
2022-12-20T07:07:15.440Z,84.39
2022-12-20T07:08:47.465Z,84.36
2022-12-20T07:10:19.685Z,84.21
2022-12-20T07:11:52.524Z,84.16
2022-12-20T07:13:24.566Z,84.03
2022-12-20T07:14:57.877Z,83.85
2022-12-20T07:16:30.034Z,83.79
2022-12-20T07:18:02.075Z,83.80
2022-12-20T07:19:36.464Z,84.02
2022-12-20T07:21:09.500Z,83.95
2022-12-20T07:22:41.722Z,84.14
2022-12-20T07:24:16.550Z,84.21
2022-12-20T07:25:59.384Z,83.85
2022-12-20T07:27:31.694Z,83.70
2022-12-20T07:29:04.013Z,83.64
2022-12-20T07:30:37.813Z,83.62
2022-12-20T07:32:10.029Z,83.08
2022-12-20T07:33:42.171Z,83.10
2022-12-20T07:35:15.046Z,82.83
2022-12-20T07:36:47.224Z,82.55
2022-12-20T07:38:19.626Z,82.44
2022-12-20T07:39:51.622Z,82.46
2022-12-20T07:41:25.427Z,82.32
2022-12-20T07:42:57.509Z,82.48
2022-12-20T07:44:29.599Z,82.74
2022-12-20T07:46:05.235Z,82.70
2022-12-20T07:47:37.460Z,82.86
2022-12-20T07:49:09.885Z,83.11
2022-12-20T07:50:42.308Z,82.99
2022-12-20T07:52:14.972Z,83.09
2022-12-20T07:53:56.684Z,83.23
2022-12-20T07:55:31.551Z,83.56
2022-12-20T07:57:12.822Z,83.72
2022-12-20T07:58:45.272Z,84.38
2022-12-20T08:00:19.079Z,84.23
2022-12-20T08:01:51.655Z,84.44
2022-12-20T08:03:33.846Z,84.33
2022-12-20T08:05:08.843Z,84.51
2022-12-20T08:06:41.570Z,84.49
2022-12-20T08:08:14.338Z,84.15
2022-12-20T08:09:46.708Z,84.04
2022-12-20T08:11:19.132Z,84.06
2022-12-20T08:12:52.101Z,83.74
2022-12-20T08:14:24.314Z,83.51
2022-12-20T08:15:56.389Z,83.58
2022-12-20T08:17:28.434Z,83.42
2022-12-20T08:19:00.858Z,82.97
2022-12-20T08:20:33.324Z,83.08
2022-12-20T08:22:06.599Z,83.10
2022-12-20T08:23:38.704Z,83.08
2022-12-20T08:25:12.205Z,83.08
2022-12-20T08:26:44.300Z,82.92
2022-12-20T08:28:16.554Z,82.88
2022-12-20T08:29:49.183Z,83.00
2022-12-20T08:31:21.405Z,83.19
2022-12-20T08:32:53.628Z,83.42
2022-12-20T08:34:25.647Z,83.36
2022-12-20T08:36:03.641Z,83.98
2022-12-20T08:37:35.871Z,83.93
2022-12-20T08:39:08.435Z,84.04
2022-12-20T08:40:40.447Z,83.91
2022-12-20T08:42:13.085Z,84.03
2022-12-20T08:43:45.219Z,84.15
2022-12-20T08:45:19.363Z,83.98
2022-12-20T08:46:51.888Z,83.97
2022-12-20T08:48:23.950Z,83.75
2022-12-20T08:49:56.117Z,84.10
2022-12-20T08:51:29.533Z,84.05
2022-12-20T08:53:01.601Z,84.10
2022-12-20T08:54:33.669Z,84.40
2022-12-20T08:56:08.040Z,84.65
2022-12-20T08:59:12.012Z,84.62
2022-12-20T09:00:44.355Z,84.63
2022-12-20T09:02:16.882Z,84.67
2022-12-20T09:03:49.460Z,84.50
2022-12-20T09:05:21.842Z,84.49
2022-12-20T09:06:53.959Z,84.46
2022-12-20T09:08:26.509Z,84.41
2022-12-20T09:09:58.485Z,84.14
2022-12-20T09:11:31.143Z,84.22
2022-12-20T09:13:03.175Z,84.02
2022-12-20T09:14:35.305Z,84.01
2022-12-20T09:16:08.668Z,83.91
2022-12-20T09:17:40.594Z,83.90
2022-12-20T09:19:13.567Z,83.85
2022-12-20T09:20:45.946Z,83.54
2022-12-20T09:22:17.958Z,83.21
2022-12-20T09:23:55.267Z,83.10
2022-12-20T09:25:28.560Z,82.86
2022-12-20T09:27:00.579Z,82.88
2022-12-20T09:28:33.539Z,82.97
2022-12-20T09:30:06.480Z,82.66
2022-12-20T09:31:38.570Z,82.75
2022-12-20T09:33:10.848Z,82.65
2022-12-20T09:34:42.991Z,82.83
2022-12-20T09:36:18.001Z,83.19
2022-12-20T09:37:50.065Z,83.47
2022-12-20T09:39:22.103Z,83.49
2022-12-20T09:40:56.667Z,83.76
2022-12-20T09:42:29.344Z,83.74
2022-12-20T09:44:06.171Z,83.42
2022-12-20T09:45:38.401Z,83.52
2022-12-20T09:47:20.328Z,83.44
2022-12-20T09:48:52.716Z,83.55
2022-12-20T09:51:17.119Z,83.22
2022-12-20T09:53:00.924Z,83.59
2022-12-20T09:54:42.484Z,83.63
2022-12-20T09:56:20.820Z,83.71
2022-12-20T09:58:02.015Z,83.37
2022-12-20T09:59:39.553Z,83.28
2022-12-20T10:01:23.174Z,83.14
2022-12-20T10:03:08.249Z,83.43
2022-12-20T10:04:42.520Z,83.27
2022-12-20T10:06:23.514Z,83.03
2022-12-20T10:08:10.703Z,82.87
2022-12-20T10:10:14.999Z,82.88
2022-12-20T10:12:10.296Z,83.38
2022-12-20T10:13:57.288Z,83.83
2022-12-20T10:15:34.215Z,84.03
2022-12-20T10:17:12.729Z,84.10
2022-12-20T10:19:02.919Z,83.87
2022-12-20T10:20:43.713Z,83.69
2022-12-20T10:22:26.981Z,83.23
2022-12-20T10:23:58.893Z,83.40
2022-12-20T10:25:33.348Z,83.39
2022-12-20T10:27:16.079Z,83.57
2022-12-20T10:28:53.687Z,83.38
2022-12-20T10:30:28.033Z,83.20
2022-12-20T10:32:02.072Z,83.20
2022-12-20T10:33:34.737Z,83.28
2022-12-20T10:35:17.425Z,83.14
2022-12-20T10:36:50.608Z,83.15
2022-12-20T10:38:24.400Z,82.90
2022-12-20T10:39:58.446Z,82.98
2022-12-20T10:41:42.955Z,82.86
2022-12-20T10:43:21.089Z,83.07
2022-12-20T10:44:53.928Z,83.52
2022-12-20T10:46:55.151Z,83.76
2022-12-20T10:48:30.086Z,83.90
2022-12-20T10:50:20.660Z,83.80
2022-12-20T10:51:59.007Z,84.05
2022-12-20T10:53:32.476Z,84.14
2022-12-20T10:55:43.596Z,84.10
2022-12-20T10:57:29.521Z,84.42
2022-12-20T10:59:03.005Z,84.33
2022-12-20T11:00:35.147Z,84.28
2022-12-20T11:02:31.746Z,84.33
2022-12-20T11:04:26.288Z,84.57
2022-12-20T11:06:06.196Z,84.65
2022-12-20T11:08:34.973Z,84.33
2022-12-20T11:10:02.463Z,84.46
2022-12-20T11:11:34.849Z,84.11
2022-12-20T11:13:07.029Z,84.00
2022-12-20T11:14:43.740Z,83.98
2022-12-20T11:16:45.129Z,83.51
2022-12-20T11:18:40.956Z,83.03
2022-12-20T11:20:22.467Z,83.34
2022-12-20T11:22:00.569Z,83.67
2022-12-20T11:23:53.526Z,84.07
2022-12-20T11:25:56.902Z,84.00
2022-12-20T11:27:33.219Z,83.98
2022-12-20T11:29:28.436Z,84.06
2022-12-20T11:31:04.661Z,84.09
2022-12-20T11:32:57.913Z,84.60
2022-12-20T11:34:48.187Z,84.68
2022-12-20T11:38:02.724Z,84.35
2022-12-20T11:39:58.199Z,84.04
2022-12-20T11:41:53.486Z,84.24
2022-12-20T11:44:23.237Z,83.65
2022-12-20T11:46:07.474Z,83.75
2022-12-20T11:48:03.490Z,83.70
2022-12-20T11:49:46.329Z,83.88
2022-12-20T11:51:28.412Z,83.88
2022-12-20T11:53:17.494Z,83.67
2022-12-20T11:55:10.459Z,83.77
2022-12-20T11:56:47.632Z,84.30
2022-12-20T11:58:33.267Z,84.38
2022-12-20T12:00:06.889Z,83.87
2022-12-20T12:01:58.244Z,84.10
2022-12-20T12:03:36.235Z,83.93
2022-12-20T12:05:19.340Z,83.44
2022-12-20T12:07:01.998Z,83.53
2022-12-20T12:08:52.055Z,83.47
2022-12-20T12:12:21.871Z,83.06
2022-12-20T12:13:54.638Z,83.07
2022-12-20T12:15:50.961Z,82.75
2022-12-20T12:17:49.207Z,82.97
2022-12-20T12:19:21.762Z,82.86
2022-12-20T12:21:09.594Z,82.81
2022-12-20T12:22:43.654Z,82.90
2022-12-20T12:24:28.014Z,82.63
2022-12-20T12:26:04.437Z,82.85
2022-12-20T12:27:36.853Z,83.15
2022-12-20T12:29:17.369Z,83.23
2022-12-20T12:31:00.204Z,82.73
2022-12-20T12:32:44.559Z,82.45
2022-12-20T12:34:48.944Z,82.48
2022-12-20T12:36:29.742Z,82.57
2022-12-20T12:38:19.560Z,82.12
2022-12-20T12:40:29.106Z,81.85
2022-12-20T12:42:23.851Z,82.46
2022-12-20T12:44:18.737Z,82.59
2022-12-20T12:45:53.003Z,82.45
2022-12-20T12:47:46.855Z,82.08
2022-12-20T12:49:21.798Z,81.85
2022-12-20T12:50:57.108Z,81.51
2022-12-20T12:52:42.849Z,81.43
2022-12-20T12:54:38.733Z,81.70
2022-12-20T12:56:46.200Z,81.35
2022-12-20T12:58:24.682Z,80.67
2022-12-20T12:59:56.781Z,80.54
2022-12-20T13:01:44.024Z,80.88
2022-12-20T13:03:17.623Z,80.96
2022-12-20T13:05:04.667Z,80.77
2022-12-20T13:06:36.692Z,80.77
2022-12-20T13:08:18.941Z,80.42
2022-12-20T13:09:50.998Z,80.55
2022-12-20T13:11:31.237Z,80.08
2022-12-20T13:13:13.973Z,80.24
2022-12-20T13:14:45.960Z,80.26
2022-12-20T13:17:02.394Z,80.22
2022-12-20T13:18:24.097Z,79.94
2022-12-20T13:19:56.744Z,80.23
2022-12-20T13:21:32.229Z,79.56
2022-12-20T13:23:13.041Z,79.43
2022-12-20T13:24:57.496Z,79.29
2022-12-20T13:26:52.593Z,79.32
2022-12-20T13:28:24.826Z,79.13
2022-12-20T13:30:04.929Z,79.08
2022-12-20T13:31:37.177Z,79.33
2022-12-20T13:33:45.931Z,79.36
2022-12-20T13:35:28.258Z,79.80
2022-12-20T13:37:00.419Z,79.82
2022-12-20T13:38:47.396Z,80.03
2022-12-20T13:40:43.839Z,80.06
2022-12-20T13:42:39.215Z,80.11
2022-12-20T13:44:17.082Z,80.27
2022-12-20T13:45:52.419Z,80.18
2022-12-20T13:47:37.809Z,80.12
2022-12-20T13:49:12.594Z,79.87
2022-12-20T13:50:53.715Z,79.52
2022-12-20T13:52:33.558Z,79.43
2022-12-20T13:54:08.055Z,79.12
2022-12-20T13:55:42.841Z,78.93
2022-12-20T13:57:22.346Z,78.99
2022-12-20T13:58:55.432Z,79.13
2022-12-20T14:00:28.119Z,79.21
2022-12-20T14:02:02.451Z,79.02
2022-12-20T14:03:41.449Z,78.95
2022-12-20T14:05:17.791Z,79.40
2022-12-20T14:07:10.270Z,79.57
2022-12-20T14:08:46.717Z,79.37
2022-12-20T14:10:24.985Z,79.04
2022-12-20T14:12:04.095Z,78.76
2022-12-20T14:13:36.105Z,78.79
2022-12-20T14:15:25.914Z,78.77
2022-12-20T14:17:15.956Z,78.58
2022-12-20T14:19:08.009Z,78.62
2022-12-20T14:20:40.319Z,78.52
2022-12-20T14:22:12.844Z,78.80
2022-12-20T14:23:48.864Z,78.97
2022-12-20T14:25:30.926Z,78.96
2022-12-20T14:27:03.034Z,79.23
2022-12-20T14:28:44.731Z,79.52
2022-12-20T14:30:46.149Z,79.81
2022-12-20T14:32:21.415Z,80.09
2022-12-20T14:34:07.016Z,80.11
2022-12-20T14:35:47.743Z,80.32
2022-12-20T14:37:39.476Z,80.08
2022-12-20T14:39:26.731Z,80.33
2022-12-20T14:40:58.823Z,80.68
2022-12-20T14:42:41.001Z,80.62
2022-12-20T14:44:22.914Z,80.32
2022-12-20T14:46:31.213Z,80.36
2022-12-20T14:49:41.156Z,80.10
2022-12-20T14:51:13.923Z,80.08
2022-12-20T14:52:46.124Z,80.45
2022-12-20T14:55:05.867Z,80.35
2022-12-20T14:56:26.448Z,80.75
2022-12-20T14:58:07.207Z,80.81
2022-12-20T14:59:39.181Z,80.40
2022-12-20T15:01:22.325Z,80.70
2022-12-20T15:02:59.634Z,80.95
2022-12-20T15:04:33.630Z,80.86
2022-12-20T15:06:05.914Z,80.83
2022-12-20T15:07:41.999Z,80.74
2022-12-20T15:09:15.084Z,80.80
2022-12-20T15:11:11.091Z,80.95
2022-12-20T15:12:43.295Z,80.99
2022-12-20T15:14:36.951Z,80.50
2022-12-20T15:16:20.233Z,79.93
2022-12-20T15:19:25.132Z,79.42
2022-12-20T15:21:20.051Z,78.99
2022-12-20T15:22:52.154Z,78.96
2022-12-20T15:24:26.131Z,78.70
2022-12-20T15:25:58.254Z,78.78
2022-12-20T15:27:30.288Z,78.55
2022-12-20T15:29:02.882Z,78.40
2022-12-20T15:30:34.821Z,78.08
2022-12-20T15:32:30.072Z,77.82
2022-12-20T15:34:05.320Z,78.20
2022-12-20T15:35:37.422Z,78.09
2022-12-20T15:37:18.622Z,78.00
2022-12-20T15:39:11.852Z,78.28
2022-12-20T15:40:49.135Z,78.37
2022-12-20T15:42:23.224Z,78.31
2022-12-20T15:44:00.532Z,78.46
2022-12-20T15:45:32.947Z,78.47
2022-12-20T15:47:05.133Z,78.46
2022-12-20T15:48:37.255Z,78.42
2022-12-20T15:50:11.941Z,78.70
2022-12-20T15:51:45.136Z,78.54
2022-12-20T15:53:22.917Z,78.71
2022-12-20T15:54:54.898Z,78.25
2022-12-20T15:56:27.975Z,78.11
2022-12-20T15:58:00.045Z,78.38
2022-12-20T15:59:59.016Z,78.33
2022-12-20T16:01:40.802Z,78.42
2022-12-20T16:03:16.044Z,78.65
2022-12-20T16:04:48.493Z,78.28
2022-12-20T16:06:20.655Z,78.31
2022-12-20T16:07:52.733Z,78.09
2022-12-20T16:09:26.237Z,78.04
2022-12-20T16:10:59.999Z,77.73
2022-12-20T16:12:36.410Z,77.50
2022-12-20T16:14:15.109Z,77.75
2022-12-20T16:15:47.677Z,78.04
2022-12-20T16:17:19.769Z,78.07
2022-12-20T16:18:54.066Z,77.92
2022-12-20T16:20:27.827Z,78.36
2022-12-20T16:21:59.871Z,78.50
2022-12-20T16:23:31.891Z,78.66
2022-12-20T16:25:07.250Z,78.79
2022-12-20T16:26:39.300Z,78.62
2022-12-20T16:28:11.399Z,78.67
2022-12-20T16:29:43.661Z,78.57
2022-12-20T16:31:33.686Z,78.07
2022-12-20T16:33:06.888Z,78.03
2022-12-20T16:34:38.926Z,78.02
2022-12-20T16:36:12.672Z,78.11
2022-12-20T16:37:44.746Z,78.01
2022-12-20T16:39:17.735Z,77.98
2022-12-20T16:40:50.069Z,77.84
2022-12-20T16:42:24.804Z,77.65
2022-12-20T16:43:59.440Z,77.95
2022-12-20T16:45:33.237Z,77.93
2022-12-20T16:47:05.537Z,77.94
2022-12-20T16:48:40.264Z,77.78
2022-12-20T16:50:12.746Z,77.88
2022-12-20T16:51:47.003Z,77.94
2022-12-20T16:53:19.672Z,77.74
2022-12-20T16:54:52.009Z,77.74
2022-12-20T16:56:24.719Z,77.94
2022-12-20T16:57:56.908Z,77.98
2022-12-20T16:59:29.077Z,77.84
2022-12-20T17:01:01.263Z,78.00
2022-12-20T17:02:34.681Z,78.08
2022-12-20T17:04:07.158Z,78.11
2022-12-20T17:05:39.912Z,78.41
2022-12-20T17:07:11.908Z,78.40
2022-12-20T17:10:31.034Z,78.02
2022-12-20T17:12:04.564Z,78.33
2022-12-20T17:13:36.514Z,78.81
2022-12-20T17:15:15.990Z,79.29
2022-12-20T17:16:48.316Z,79.72
2022-12-20T17:18:20.445Z,79.74
2022-12-20T17:19:52.439Z,79.77
2022-12-20T17:21:27.400Z,79.63
2022-12-20T17:22:59.486Z,79.98
2022-12-20T17:24:31.528Z,79.99
2022-12-20T17:27:35.550Z,80.09
2022-12-20T17:29:08.034Z,79.99
2022-12-20T17:30:40.038Z,80.12
2022-12-20T17:32:23.813Z,80.44
2022-12-20T17:33:59.772Z,80.32
2022-12-20T17:35:33.072Z,80.40
2022-12-20T17:37:05.028Z,80.65
2022-12-20T17:38:37.134Z,80.24
2022-12-20T17:40:10.009Z,80.05
2022-12-20T17:41:45.770Z,80.36
2022-12-20T17:43:18.034Z,80.62
2022-12-20T17:44:50.179Z,80.26
2022-12-20T17:46:22.652Z,80.36
2022-12-20T17:47:55.366Z,80.42
2022-12-20T17:49:27.558Z,80.54
2022-12-20T17:50:59.683Z,80.60
2022-12-20T17:52:31.899Z,80.58
2022-12-20T17:54:04.193Z,80.88
2022-12-20T17:55:36.332Z,81.18
2022-12-20T17:57:15.714Z,81.40
2022-12-20T17:58:47.953Z,81.87
2022-12-20T18:00:24.189Z,81.93
2022-12-20T18:01:56.630Z,81.81
2022-12-20T18:04:02.268Z,81.86
2022-12-20T18:05:21.797Z,81.99
2022-12-20T18:06:53.947Z,82.23
2022-12-20T18:08:26.169Z,82.15
2022-12-20T18:09:58.210Z,82.09
2022-12-20T18:11:30.518Z,81.83
2022-12-20T18:13:02.590Z,81.99
2022-12-20T18:14:34.650Z,82.06
2022-12-20T18:16:07.619Z,81.98
2022-12-20T18:17:40.126Z,81.57
2022-12-20T18:19:19.079Z,81.45
2022-12-20T18:20:51.248Z,81.37
2022-12-20T18:22:23.291Z,81.23
2022-12-20T18:23:55.669Z,80.92
2022-12-20T18:25:27.702Z,80.63
2022-12-20T18:26:59.776Z,80.68
2022-12-20T18:28:31.909Z,80.79
2022-12-20T18:30:04.995Z,80.66
2022-12-20T18:31:37.359Z,80.57
2022-12-20T18:33:09.455Z,80.54
2022-12-20T18:34:41.478Z,80.48
2022-12-20T18:36:18.769Z,80.20
2022-12-20T18:37:50.922Z,80.16
2022-12-20T18:39:23.070Z,80.19
2022-12-20T18:40:55.127Z,80.07
2022-12-20T18:42:27.196Z,80.10
2022-12-20T18:44:01.587Z,80.45
2022-12-20T18:45:34.989Z,80.49
2022-12-20T18:47:09.428Z,80.30
2022-12-20T18:48:42.777Z,80.58
2022-12-20T18:50:14.886Z,80.72
2022-12-20T18:51:46.995Z,80.67
2022-12-20T18:53:19.145Z,81.24
2022-12-20T18:54:51.399Z,81.53
2022-12-20T18:56:26.741Z,81.86
2022-12-20T18:57:58.910Z,82.20
2022-12-20T18:59:31.310Z,82.35
2022-12-20T19:01:06.730Z,82.42
2022-12-20T19:02:39.362Z,82.59
2022-12-20T19:04:12.342Z,82.79
2022-12-20T19:05:44.575Z,83.00
2022-12-20T19:07:17.045Z,83.17
2022-12-20T19:08:49.313Z,83.21
2022-12-20T19:10:21.578Z,83.09
2022-12-20T19:11:57.380Z,83.19
2022-12-20T19:13:30.198Z,83.30
2022-12-20T19:15:02.540Z,83.58
2022-12-20T19:16:35.947Z,83.56
2022-12-20T19:18:07.942Z,83.38
2022-12-20T19:19:40.075Z,83.52
2022-12-20T19:21:14.624Z,83.47
2022-12-20T19:22:46.744Z,83.68
2022-12-20T19:24:18.855Z,83.85
2022-12-20T19:25:50.996Z,83.80
2022-12-20T19:27:24.037Z,83.84
2022-12-20T19:28:56.687Z,83.82
2022-12-20T19:30:29.173Z,83.53
2022-12-20T19:32:02.267Z,83.57
2022-12-20T19:33:37.641Z,83.61
2022-12-20T19:35:45.279Z,83.25
2022-12-20T19:37:01.722Z,83.23
2022-12-20T19:38:33.737Z,83.16
2022-12-20T19:40:06.561Z,83.48
2022-12-20T19:41:38.700Z,83.45
2022-12-20T19:43:10.789Z,83.46
2022-12-20T19:44:42.915Z,83.38
2022-12-20T19:46:15.921Z,83.02
2022-12-20T19:47:48.012Z,82.69
2022-12-20T19:49:20.236Z,82.58
2022-12-20T19:50:52.318Z,82.64
2022-12-20T19:52:28.469Z,82.28
2022-12-20T19:55:33.933Z,82.43
2022-12-20T19:57:05.940Z,82.41
2022-12-20T19:58:38.578Z,82.32
2022-12-20T20:00:11.232Z,82.14
2022-12-20T20:01:43.375Z,82.19
2022-12-20T20:03:16.106Z,82.17
2022-12-20T20:04:48.375Z,82.19
2022-12-20T20:06:21.131Z,81.97
2022-12-20T20:07:53.271Z,81.79
2022-12-20T20:09:25.515Z,81.73
2022-12-20T20:11:01.486Z,81.78
2022-12-20T20:12:38.722Z,81.74
2022-12-20T20:14:10.895Z,81.68
2022-12-20T20:15:50.831Z,82.02
2022-12-20T20:17:23.045Z,82.19
2022-12-20T20:18:55.169Z,82.29
2022-12-20T20:20:27.267Z,82.35
2022-12-20T20:21:59.562Z,82.59
2022-12-20T20:23:31.595Z,82.72
2022-12-20T20:25:03.907Z,82.60
2022-12-20T20:26:36.311Z,82.56
2022-12-20T20:29:41.451Z,82.35
2022-12-20T20:31:18.262Z,82.22
2022-12-20T20:32:50.350Z,82.23
2022-12-20T20:34:22.492Z,82.39
2022-12-20T20:35:59.691Z,82.27
2022-12-20T20:37:32.659Z,82.09
2022-12-20T20:39:04.835Z,81.93
2022-12-20T20:40:37.257Z,81.88
2022-12-20T20:42:09.288Z,81.82
2022-12-20T20:43:41.961Z,81.74
2022-12-20T20:45:14.009Z,81.50
2022-12-20T20:46:46.115Z,81.46
2022-12-20T20:48:18.601Z,81.59
2022-12-20T20:49:52.902Z,81.84
2022-12-20T20:51:24.913Z,81.84
2022-12-20T20:52:57.081Z,81.65
2022-12-20T20:54:29.160Z,81.64
2022-12-20T20:56:01.903Z,81.55
2022-12-20T20:57:34.154Z,81.63
2022-12-20T20:59:10.576Z,81.59
2022-12-20T21:00:47.526Z,81.66